sensor_id;sensor_type;location;lat;lon;timestamp;pressure;altitude;pressure_sealevel;temperature;humidity
69173;BME280;56280;49.662;8.408;2022-09-01T00:00:38;100962.69;;;15.75;74.98
69173;BME280;56280;49.662;8.408;2022-09-01T00:03:06;100991.59;;;15.81;76.49
69173;BME280;56280;49.662;8.408;2022-09-01T00:05:33;100987.66;;;15.66;77.59
69173;BME280;56280;49.662;8.408;2022-09-01T00:08:00;100999.53;;;15.63;78.27
69173;BME280;56280;49.662;8.408;2022-09-01T00:10:25;100988.41;;;15.48;78.77
69173;BME280;56280;49.662;8.408;2022-09-01T00:12:50;101000.94;;;15.58;77.75
69173;BME280;56280;49.662;8.408;2022-09-01T00:15:16;100965.59;;;15.44;77.39
69173;BME280;56280;49.662;8.408;2022-09-01T00:17:41;100977.25;;;15.53;77.71
69173;BME280;56280;49.662;8.408;2022-09-01T00:20:07;100997.97;;;15.61;77.66
69173;BME280;56280;49.662;8.408;2022-09-01T00:22:33;100997.69;;;15.64;77.99
69173;BME280;56280;49.662;8.408;2022-09-01T00:24:58;100980.09;;;15.52;77.83
69173;BME280;56280;49.662;8.408;2022-09-01T00:27:26;100926.06;;;15.19;77.69
69173;BME280;56280;49.662;8.408;2022-09-01T00:29:51;100989.00;;;15.42;78.62
69173;BME280;56280;49.662;8.408;2022-09-01T00:32:17;100980.41;;;15.19;79.19
69173;BME280;56280;49.662;8.408;2022-09-01T00:34:42;100977.63;;;15.11;80.14
69173;BME280;56280;49.662;8.408;2022-09-01T00:41:15;100986.06;;;15.06;80.75
69173;BME280;56280;49.662;8.408;2022-09-01T00:55:32;100883.94;;;14.33;80.72
69173;BME280;56280;49.662;8.408;2022-09-01T00:58:00;100905.50;;;14.41;80.95
69173;BME280;56280;49.662;8.408;2022-09-01T01:00:30;100974.81;;;14.83;80.58
69173;BME280;56280;49.662;8.408;2022-09-01T01:02:59;100966.38;;;14.88;80.21
69173;BME280;56280;49.662;8.408;2022-09-01T01:05:30;100967.34;;;14.77;80.24
69173;BME280;56280;49.662;8.408;2022-09-01T01:08:01;100956.78;;;14.85;80.08
69173;BME280;56280;49.662;8.408;2022-09-01T01:10:33;100990.03;;;15.02;80.10
69173;BME280;56280;49.662;8.408;2022-09-01T01:13:00;100953.94;;;15.06;79.30
69173;BME280;56280;49.662;8.408;2022-09-01T01:15:27;100972.69;;;14.97;79.30
69173;BME280;56280;49.662;8.408;2022-09-01T01:17:54;100975.38;;;14.77;80.53
69173;BME280;56280;49.662;8.408;2022-09-01T01:20:25;100938.16;;;14.45;81.42
69173;BME280;56280;49.662;8.408;2022-09-01T01:23:30;100983.34;;;14.57;82.10
69173;BME280;56280;49.662;8.408;2022-09-01T01:26:03;100943.63;;;14.33;82.70
69173;BME280;56280;49.662;8.408;2022-09-01T01:28:45;100902.06;;;14.10;82.24
69173;BME280;56280;49.662;8.408;2022-09-01T01:31:13;100961.38;;;14.44;82.33
69173;BME280;56280;49.662;8.408;2022-09-01T01:33:46;100977.56;;;14.52;82.47
69173;BME280;56280;49.662;8.408;2022-09-01T01:36:20;100964.03;;;14.44;82.62
69173;BME280;56280;49.662;8.408;2022-09-01T01:38:50;100916.25;;;14.10;82.57
69173;BME280;56280;49.662;8.408;2022-09-01T01:41:20;100933.31;;;14.19;82.62
69173;BME280;56280;49.662;8.408;2022-09-01T01:43:46;100960.50;;;14.34;82.93
69173;BME280;56280;49.662;8.408;2022-09-01T01:46:12;100932.28;;;14.10;82.84
69173;BME280;56280;49.662;8.408;2022-09-01T01:48:40;100977.09;;;14.37;82.99
69173;BME280;56280;49.662;8.408;2022-09-01T01:51:07;100956.41;;;14.30;82.74
69173;BME280;56280;49.662;8.408;2022-09-01T01:53:33;100975.41;;;14.36;82.68
69173;BME280;56280;49.662;8.408;2022-09-01T01:55:59;100969.06;;;14.37;82.40
69173;BME280;56280;49.662;8.408;2022-09-01T01:58:30;100977.09;;;14.37;82.20
69173;BME280;56280;49.662;8.408;2022-09-01T02:00:59;100887.53;;;13.83;82.29
69173;BME280;56280;49.662;8.408;2022-09-01T02:03:28;100963.00;;;14.26;82.22
69173;BME280;56280;49.662;8.408;2022-09-01T02:05:59;100924.25;;;14.00;82.31
69173;BME280;56280;49.662;8.408;2022-09-01T02:08:28;100932.28;;;14.00;81.94
69173;BME280;56280;49.662;8.408;2022-09-01T02:10:56;100966.50;;;14.26;82.08
69173;BME280;56280;49.662;8.408;2022-09-01T02:13:24;100921.00;;;13.87;82.12
69173;BME280;56280;49.662;8.408;2022-09-01T02:15:54;100961.13;;;14.16;82.56
69173;BME280;56280;49.662;8.408;2022-09-01T02:18:23;100974.53;;;14.26;82.59
69173;BME280;56280;49.662;8.408;2022-09-01T02:20:52;100962.72;;;14.19;82.40
69173;BME280;56280;49.662;8.408;2022-09-01T02:23:19;100928.59;;;13.92;82.80
69173;BME280;56280;49.662;8.408;2022-09-01T02:25:48;100980.28;;;14.21;82.46
69173;BME280;56280;49.662;8.408;2022-09-01T02:28:14;100973.81;;;14.14;82.99
69173;BME280;56280;49.662;8.408;2022-09-01T02:30:42;100982.09;;;14.11;82.98
69173;BME280;56280;49.662;8.408;2022-09-01T02:33:08;100979.69;;;14.08;83.24
69173;BME280;56280;49.662;8.408;2022-09-01T02:35:35;100942.63;;;13.84;83.25
69173;BME280;56280;49.662;8.408;2022-09-01T02:38:05;100943.44;;;13.84;82.85
69173;BME280;56280;49.662;8.408;2022-09-01T02:40:31;100972.66;;;14.07;82.72
69173;BME280;56280;49.662;8.408;2022-09-01T02:42:58;100957.59;;;14.06;82.02
69173;BME280;56280;49.662;8.408;2022-09-01T02:45:26;100962.94;;;14.06;81.97
69173;BME280;56280;49.662;8.408;2022-09-01T02:47:53;100948.44;;;13.99;81.55
69173;BME280;56280;49.662;8.408;2022-09-01T02:50:21;100972.38;;;14.10;81.68
69173;BME280;56280;49.662;8.408;2022-09-01T02:52:48;100951.56;;;14.04;81.39
69173;BME280;56280;49.662;8.408;2022-09-01T02:55:16;100945.50;;;14.02;81.26
69173;BME280;56280;49.662;8.408;2022-09-01T02:57:45;100963.38;;;14.11;80.93
69173;BME280;56280;49.662;8.408;2022-09-01T03:00:14;100952.53;;;14.03;80.79
69173;BME280;56280;49.662;8.408;2022-09-01T03:02:59;100965.50;;;14.17;80.84
69173;BME280;56280;49.662;8.408;2022-09-01T03:05:27;100971.81;;;14.16;80.87
69173;BME280;56280;49.662;8.408;2022-09-01T03:07:57;100952.97;;;14.08;80.51
69173;BME280;56280;49.662;8.408;2022-09-01T03:10:32;100943.09;;;13.99;80.46
69173;BME280;56280;49.662;8.408;2022-09-01T03:13:00;100959.44;;;14.06;81.05
69173;BME280;56280;49.662;8.408;2022-09-01T03:15:27;100944.06;;;13.88;81.53
69173;BME280;56280;49.662;8.408;2022-09-01T03:17:52;100954.03;;;13.96;81.23
69173;BME280;56280;49.662;8.408;2022-09-01T03:20:18;100960.81;;;14.00;81.66
69173;BME280;56280;49.662;8.408;2022-09-01T03:22:45;100933.28;;;13.68;81.72
69173;BME280;56280;49.662;8.408;2022-09-01T03:25:12;100952.91;;;13.89;82.33
69173;BME280;56280;49.662;8.408;2022-09-01T03:27:37;100966.13;;;13.90;82.49
69173;BME280;56280;49.662;8.408;2022-09-01T03:30:03;100901.50;;;13.35;82.63
69173;BME280;56280;49.662;8.408;2022-09-01T03:32:28;100959.31;;;13.76;82.56
69173;BME280;56280;49.662;8.408;2022-09-01T03:34:54;100954.22;;;13.73;82.78
69173;BME280;56280;49.662;8.408;2022-09-01T03:37:19;100958.50;;;13.85;82.65
69173;BME280;56280;49.662;8.408;2022-09-01T03:39:45;100962.66;;;13.99;81.76
69173;BME280;56280;49.662;8.408;2022-09-01T03:42:11;100966.50;;;14.16;80.87
69173;BME280;56280;49.662;8.408;2022-09-01T03:44:36;100959.19;;;14.18;80.44
69173;BME280;56280;49.662;8.408;2022-09-01T03:47:05;100951.88;;;14.20;80.26
69173;BME280;56280;49.662;8.408;2022-09-01T03:49:35;100939.75;;;14.07;79.73
69173;BME280;56280;49.662;8.408;2022-09-01T03:52:03;100970.00;;;14.07;80.36
69173;BME280;56280;49.662;8.408;2022-09-01T03:54:29;100972.13;;;13.82;81.79
69173;BME280;56280;49.662;8.408;2022-09-01T03:56:57;100950.09;;;13.59;82.91
69173;BME280;56280;49.662;8.408;2022-09-01T03:59:24;100975.28;;;13.66;83.33
69173;BME280;56280;49.662;8.408;2022-09-01T04:01:49;100945.09;;;13.45;83.90
69173;BME280;56280;49.662;8.408;2022-09-01T04:04:15;100969.75;;;13.58;83.96
69173;BME280;56280;49.662;8.408;2022-09-01T04:06:42;100974.53;;;13.55;83.91
69173;BME280;56280;49.662;8.408;2022-09-01T04:09:09;100967.56;;;13.42;84.03
69173;BME280;56280;49.662;8.408;2022-09-01T04:11:36;100964.63;;;13.45;83.79
69173;BME280;56280;49.662;8.408;2022-09-01T04:14:04;100970.66;;;13.47;83.89
69173;BME280;56280;49.662;8.408;2022-09-01T04:16:33;100971.84;;;13.55;84.10
69173;BME280;56280;49.662;8.408;2022-09-01T04:19:22;100974.34;;;13.46;84.23
69173;BME280;56280;49.662;8.408;2022-09-01T04:21:56;100969.84;;;13.47;83.27
69173;BME280;56280;49.662;8.408;2022-09-01T04:24:24;100973.44;;;13.57;83.03
69173;BME280;56280;49.662;8.408;2022-09-01T04:26:52;100968.22;;;13.56;82.83
69173;BME280;56280;49.662;8.408;2022-09-01T04:29:19;100973.81;;;13.53;83.23
69173;BME280;56280;49.662;8.408;2022-09-01T04:31:51;100952.41;;;13.43;83.23
69173;BME280;56280;49.662;8.408;2022-09-01T04:34:18;100967.69;;;13.41;83.15
69173;BME280;56280;49.662;8.408;2022-09-01T04:36:44;100978.69;;;13.47;83.54
69173;BME280;56280;49.662;8.408;2022-09-01T04:39:10;100964.09;;;13.30;84.26
69173;BME280;56280;49.662;8.408;2022-09-01T04:41:40;100967.84;;;13.28;84.92
69173;BME280;56280;49.662;8.408;2022-09-01T04:44:06;100977.06;;;13.35;84.93
69173;BME280;56280;49.662;8.408;2022-09-01T04:46:34;100986.88;;;13.35;85.03
69173;BME280;56280;49.662;8.408;2022-09-01T04:49:04;100987.75;;;13.35;85.11
69173;BME280;56280;49.662;8.408;2022-09-01T04:51:36;100989.16;;;13.39;84.87
69173;BME280;56280;49.662;8.408;2022-09-01T04:54:02;100987.94;;;13.43;85.00
69173;BME280;56280;49.662;8.408;2022-09-01T04:56:28;100993.84;;;13.47;84.95
69173;BME280;56280;49.662;8.408;2022-09-01T04:58:54;100973.69;;;13.33;85.06
69173;BME280;56280;49.662;8.408;2022-09-01T05:01:22;100977.25;;;13.43;85.41
69173;BME280;56280;49.662;8.408;2022-09-01T05:03:49;100983.06;;;13.48;85.56
69173;BME280;56280;49.662;8.408;2022-09-01T05:06:21;100973.06;;;13.50;85.25
69173;BME280;56280;49.662;8.408;2022-09-01T05:08:46;100955.06;;;13.43;85.08
69173;BME280;56280;49.662;8.408;2022-09-01T05:11:13;100982.72;;;13.63;84.97
69173;BME280;56280;49.662;8.408;2022-09-01T05:13:43;100978.06;;;13.65;84.71
69173;BME280;56280;49.662;8.408;2022-09-01T05:16:13;100970.25;;;13.73;83.81
69173;BME280;56280;49.662;8.408;2022-09-01T05:18:51;100962.16;;;13.84;83.14
69173;BME280;56280;49.662;8.408;2022-09-01T05:21:20;100975.41;;;13.96;83.00
69173;BME280;56280;49.662;8.408;2022-09-01T05:23:48;100969.16;;;14.16;82.57
69173;BME280;56280;49.662;8.408;2022-09-01T05:26:18;100937.50;;;14.12;82.34
69173;BME280;56280;49.662;8.408;2022-09-01T05:28:46;100918.47;;;13.95;82.71
69173;BME280;56280;49.662;8.408;2022-09-01T05:31:13;100875.53;;;13.67;82.54
69173;BME280;56280;49.662;8.408;2022-09-01T05:33:47;100880.91;;;13.77;82.63
69173;BME280;56280;49.662;8.408;2022-09-01T05:36:16;100866.72;;;13.77;83.15
69173;BME280;56280;49.662;8.408;2022-09-01T05:39:13;100889.47;;;13.81;83.08
69173;BME280;56280;49.662;8.408;2022-09-01T05:41:47;100906.13;;;13.94;83.79
69173;BME280;56280;49.662;8.408;2022-09-01T05:44:14;100885.56;;;13.85;83.06
69173;BME280;56280;49.662;8.408;2022-09-01T05:49:24;100989.38;;;14.50;83.40
69173;BME280;56280;49.662;8.408;2022-09-01T05:51:52;100891.78;;;13.95;83.79
69173;BME280;56280;49.662;8.408;2022-09-01T05:54:21;100888.56;;;14.01;83.56
69173;BME280;56280;49.662;8.408;2022-09-01T05:57:33;100991.97;;;14.71;84.60
69173;BME280;56280;49.662;8.408;2022-09-01T06:00:31;100889.84;;;14.07;83.22
69173;BME280;56280;49.662;8.408;2022-09-01T06:06:44;100997.31;;;14.81;82.54
69173;BME280;56280;49.662;8.408;2022-09-01T06:09:12;100985.78;;;14.80;82.26
69173;BME280;56280;49.662;8.408;2022-09-01T06:11:37;100969.19;;;14.67;83.41
69173;BME280;56280;49.662;8.408;2022-09-01T06:14:05;100997.75;;;14.86;83.42
69173;BME280;56280;49.662;8.408;2022-09-01T06:16:35;100976.06;;;14.79;82.94
69173;BME280;56280;49.662;8.408;2022-09-01T06:19:01;100995.19;;;14.94;83.60
69173;BME280;56280;49.662;8.408;2022-09-01T06:21:27;100992.53;;;14.94;82.53
69173;BME280;56280;49.662;8.408;2022-09-01T06:23:55;101009.88;;;15.09;81.96
69173;BME280;56280;49.662;8.408;2022-09-01T06:26:27;100995.94;;;15.16;81.51
69173;BME280;56280;49.662;8.408;2022-09-01T06:28:58;100995.78;;;15.17;81.90
69173;BME280;56280;49.662;8.408;2022-09-01T06:31:28;100988.03;;;15.14;81.27
69173;BME280;56280;49.662;8.408;2022-09-01T06:33:59;100990.16;;;15.20;80.26
69173;BME280;56280;49.662;8.408;2022-09-01T06:36:25;101001.53;;;15.32;80.48
69173;BME280;56280;49.662;8.408;2022-09-01T06:38:52;100991.25;;;15.37;80.67
69173;BME280;56280;49.662;8.408;2022-09-01T06:41:19;100993.06;;;15.37;80.21
69173;BME280;56280;49.662;8.408;2022-09-01T06:43:49;101000.94;;;15.48;80.58
69173;BME280;56280;49.662;8.408;2022-09-01T06:46:17;100996.41;;;15.58;80.60
69173;BME280;56280;49.662;8.408;2022-09-01T06:48:45;100982.75;;;15.52;79.63
69173;BME280;56280;49.662;8.408;2022-09-01T06:51:19;100996.56;;;15.66;79.54
69173;BME280;56280;49.662;8.408;2022-09-01T06:53:49;100985.66;;;15.68;78.61
69173;BME280;56280;49.662;8.408;2022-09-01T06:56:16;100999.22;;;15.76;78.60
69173;BME280;56280;49.662;8.408;2022-09-01T06:58:44;101000.31;;;15.74;77.56
69173;BME280;56280;49.662;8.408;2022-09-01T07:01:14;101015.31;;;15.76;77.26
69173;BME280;56280;49.662;8.408;2022-09-01T07:03:41;101002.03;;;15.84;78.54
69173;BME280;56280;49.662;8.408;2022-09-01T07:06:07;101015.81;;;15.90;77.68
69173;BME280;56280;49.662;8.408;2022-09-01T07:08:34;100994.69;;;15.86;77.92
69173;BME280;56280;49.662;8.408;2022-09-01T07:11:05;101003.94;;;16.02;78.99
69173;BME280;56280;49.662;8.408;2022-09-01T07:13:31;101015.88;;;16.08;77.71
69173;BME280;56280;49.662;8.408;2022-09-01T07:15:58;101014.00;;;16.18;78.31
69173;BME280;56280;49.662;8.408;2022-09-01T07:18:25;100971.53;;;15.85;76.61
69173;BME280;56280;49.662;8.408;2022-09-01T07:20:52;101024.44;;;16.21;77.22
69173;BME280;56280;49.662;8.408;2022-09-01T07:23:18;101024.13;;;16.24;77.00
69173;BME280;56280;49.662;8.408;2022-09-01T07:25:46;101024.72;;;16.28;77.67
69173;BME280;56280;49.662;8.408;2022-09-01T07:28:12;101034.84;;;16.24;76.00
69173;BME280;56280;49.662;8.408;2022-09-01T07:30:41;101022.75;;;16.20;76.72
69173;BME280;56280;49.662;8.408;2022-09-01T07:33:07;101015.16;;;16.15;75.71
69173;BME280;56280;49.662;8.408;2022-09-01T07:35:37;101027.22;;;16.29;77.36
69173;BME280;56280;49.662;8.408;2022-09-01T07:38:03;101024.94;;;16.34;76.13
69173;BME280;56280;49.662;8.408;2022-09-01T07:40:30;101037.78;;;16.40;75.72
69173;BME280;56280;49.662;8.408;2022-09-01T07:42:56;101030.72;;;16.39;76.22
69173;BME280;56280;49.662;8.408;2022-09-01T07:45:21;101009.69;;;16.35;75.45
69173;BME280;56280;49.662;8.408;2022-09-01T07:47:47;101032.59;;;16.57;74.62
69173;BME280;56280;49.662;8.408;2022-09-01T07:50:13;101028.22;;;16.56;74.98
69173;BME280;56280;49.662;8.408;2022-09-01T07:52:40;101028.97;;;16.66;75.24
69173;BME280;56280;49.662;8.408;2022-09-01T07:55:14;101034.63;;;16.73;74.16
69173;BME280;56280;49.662;8.408;2022-09-01T07:57:42;101035.28;;;16.75;74.55
69173;BME280;56280;49.662;8.408;2022-09-01T08:00:09;101028.22;;;16.74;75.02
69173;BME280;56280;49.662;8.408;2022-09-01T08:02:36;101027.59;;;16.90;75.10
69173;BME280;56280;49.662;8.408;2022-09-01T08:05:06;101031.66;;;16.94;75.26
69173;BME280;56280;49.662;8.408;2022-09-01T08:07:33;101019.16;;;17.03;75.84
69173;BME280;56280;49.662;8.408;2022-09-01T08:09:58;101033.59;;;17.20;75.27
69173;BME280;56280;49.662;8.408;2022-09-01T08:12:24;101024.22;;;17.24;74.46
69173;BME280;56280;49.662;8.408;2022-09-01T08:14:49;101032.63;;;17.29;73.75
69173;BME280;56280;49.662;8.408;2022-09-01T08:17:17;101028.56;;;17.43;72.42
69173;BME280;56280;49.662;8.408;2022-09-01T08:19:42;101005.06;;;17.63;73.24
69173;BME280;56280;49.662;8.408;2022-09-01T08:22:08;101037.50;;;17.96;71.78
69173;BME280;56280;49.662;8.408;2022-09-01T08:24:33;101036.59;;;18.13;72.49
69173;BME280;56280;49.662;8.408;2022-09-01T08:26:59;101038.72;;;18.36;70.06
69173;BME280;56280;49.662;8.408;2022-09-01T08:29:24;101045.38;;;18.23;70.50
69173;BME280;56280;49.662;8.408;2022-09-01T08:31:49;101031.38;;;18.12;69.65
69173;BME280;56280;49.662;8.408;2022-09-01T08:34:14;101049.84;;;18.41;71.18
69173;BME280;56280;49.662;8.408;2022-09-01T08:36:41;101033.06;;;18.55;69.12
69173;BME280;56280;49.662;8.408;2022-09-01T08:39:06;100970.94;;;18.24;68.91
69173;BME280;56280;49.662;8.408;2022-09-01T08:41:46;101043.88;;;18.72;70.55
69173;BME280;56280;49.662;8.408;2022-09-01T08:44:29;101010.72;;;18.55;70.12
69173;BME280;56280;49.662;8.408;2022-09-01T08:47:01;101047.38;;;18.64;69.35
69173;BME280;56280;49.662;8.408;2022-09-01T08:49:28;101030.91;;;18.67;68.86
69173;BME280;56280;49.662;8.408;2022-09-01T08:54:52;101037.91;;;18.94;67.01
69173;BME280;56280;49.662;8.408;2022-09-01T08:57:20;101041.97;;;19.40;66.02
69173;BME280;56280;49.662;8.408;2022-09-01T08:59:47;101021.41;;;19.63;65.58
69173;BME280;56280;49.662;8.408;2022-09-01T09:02:54;101023.94;;;19.57;65.05
69173;BME280;56280;49.662;8.408;2022-09-01T09:05:34;101023.75;;;19.66;65.10
69173;BME280;56280;49.662;8.408;2022-09-01T09:08:12;101037.91;;;19.93;63.18
69173;BME280;56280;49.662;8.408;2022-09-01T09:16:11;101044.09;;;20.02;63.46
69173;BME280;56280;49.662;8.408;2022-09-01T09:21:48;101034.00;;;19.96;63.51
69173;BME280;56280;49.662;8.408;2022-09-01T09:24:33;101024.44;;;19.77;63.99
69173;BME280;56280;49.662;8.408;2022-09-01T09:27:25;101019.19;;;19.83;61.55
69173;BME280;56280;49.662;8.408;2022-09-01T09:29:53;101019.16;;;20.08;62.53
69173;BME280;56280;49.662;8.408;2022-09-01T09:32:22;101020.59;;;20.27;61.48
69173;BME280;56280;49.662;8.408;2022-09-01T09:34:48;101020.81;;;20.49;62.20
69173;BME280;56280;49.662;8.408;2022-09-01T09:40:01;101013.72;;;20.48;62.20
69173;BME280;56280;49.662;8.408;2022-09-01T09:42:27;101014.41;;;20.81;60.83
69173;BME280;56280;49.662;8.408;2022-09-01T09:44:53;100975.94;;;20.48;60.81
69173;BME280;56280;49.662;8.408;2022-09-01T09:47:41;100999.78;;;20.75;59.79
69173;BME280;56280;49.662;8.408;2022-09-01T09:52:48;101005.78;;;20.86;59.47
69173;BME280;56280;49.662;8.408;2022-09-01T09:55:28;100997.38;;;21.04;60.23
69173;BME280;56280;49.662;8.408;2022-09-01T09:57:57;100981.63;;;20.61;60.44
69173;BME280;56280;49.662;8.408;2022-09-01T10:00:32;101000.56;;;20.53;59.91
69173;BME280;56280;49.662;8.408;2022-09-01T10:03:02;100994.75;;;20.95;62.25
69173;BME280;56280;49.662;8.408;2022-09-01T10:08:06;100995.56;;;20.96;59.79
69173;BME280;56280;49.662;8.408;2022-09-01T10:10:45;100976.97;;;20.78;59.08
69173;BME280;56280;49.662;8.408;2022-09-01T10:13:14;100983.00;;;20.88;59.55
69173;BME280;56280;49.662;8.408;2022-09-01T10:15:43;100981.59;;;21.16;60.43
69173;BME280;56280;49.662;8.408;2022-09-01T10:18:15;100981.13;;;21.50;57.73
69173;BME280;56280;49.662;8.408;2022-09-01T10:20:52;100971.28;;;21.34;57.46
69173;BME280;56280;49.662;8.408;2022-09-01T10:23:19;100977.59;;;21.64;57.52
69173;BME280;56280;49.662;8.408;2022-09-01T10:25:45;100968.16;;;21.60;57.15
69173;BME280;56280;49.662;8.408;2022-09-01T10:28:18;100975.81;;;21.57;57.81
69173;BME280;56280;49.662;8.408;2022-09-01T10:30:46;100972.38;;;21.78;56.22
69173;BME280;56280;49.662;8.408;2022-09-01T10:33:15;100958.47;;;22.11;56.31
69173;BME280;56280;49.662;8.408;2022-09-01T10:35:43;100933.75;;;22.50;54.85
69173;BME280;56280;49.662;8.408;2022-09-01T10:38:29;100947.97;;;22.74;54.16
69173;BME280;56280;49.662;8.408;2022-09-01T10:40:56;100934.88;;;22.56;53.24
69173;BME280;56280;49.662;8.408;2022-09-01T10:43:47;100959.69;;;22.81;52.92
69173;BME280;56280;49.662;8.408;2022-09-01T10:48:45;100959.25;;;22.99;52.41
69173;BME280;56280;49.662;8.408;2022-09-01T10:53:42;100946.59;;;22.85;52.27
69173;BME280;56280;49.662;8.408;2022-09-01T10:56:21;100962.84;;;22.85;51.82
69173;BME280;56280;49.662;8.408;2022-09-01T10:58:59;100956.97;;;22.60;51.91
69173;BME280;56280;49.662;8.408;2022-09-01T11:04:15;100952.00;;;22.42;51.52
69173;BME280;56280;49.662;8.408;2022-09-01T11:09:27;100956.16;;;22.44;52.10
69173;BME280;56280;49.662;8.408;2022-09-01T11:14:48;100946.88;;;22.32;53.26
69173;BME280;56280;49.662;8.408;2022-09-01T11:17:24;100941.88;;;22.50;52.33
69173;BME280;56280;49.662;8.408;2022-09-01T11:20:28;100941.09;;;22.56;51.22
69173;BME280;56280;49.662;8.408;2022-09-01T11:23:21;100938.72;;;22.68;51.65
69173;BME280;56280;49.662;8.408;2022-09-01T11:36:48;100905.63;;;22.94;49.50
69173;BME280;56280;49.662;8.408;2022-09-01T11:46:47;100908.97;;;22.97;48.90
69173;BME280;56280;49.662;8.408;2022-09-01T11:49:31;100916.66;;;22.93;49.26
69173;BME280;56280;49.662;8.408;2022-09-01T11:51:58;100900.03;;;22.74;48.94
69173;BME280;56280;49.662;8.408;2022-09-01T11:54:25;100895.44;;;22.97;49.23
69173;BME280;56280;49.662;8.408;2022-09-01T11:56:51;100923.06;;;23.35;48.61
69173;BME280;56280;49.662;8.408;2022-09-01T11:59:36;100912.72;;;23.52;48.30
69173;BME280;56280;49.662;8.408;2022-09-01T12:02:02;100886.72;;;23.64;48.18
69173;BME280;56280;49.662;8.408;2022-09-01T12:04:34;100885.50;;;24.15;46.48
69173;BME280;56280;49.662;8.408;2022-09-01T12:07:13;100884.28;;;24.31;46.17
69173;BME280;56280;49.662;8.408;2022-09-01T12:09:47;100886.63;;;24.41;45.24
69173;BME280;56280;49.662;8.408;2022-09-01T12:12:34;100894.13;;;24.46;45.57
69173;BME280;56280;49.662;8.408;2022-09-01T12:15:16;100892.44;;;24.31;45.04
69173;BME280;56280;49.662;8.408;2022-09-01T12:17:42;100877.38;;;24.15;46.25
69173;BME280;56280;49.662;8.408;2022-09-01T12:22:45;100880.47;;;24.06;44.97
69173;BME280;56280;49.662;8.408;2022-09-01T12:25:24;100837.28;;;23.62;46.57
69173;BME280;56280;49.662;8.408;2022-09-01T12:27:50;100895.22;;;23.83;47.07
69173;BME280;56280;49.662;8.408;2022-09-01T12:30:15;100874.78;;;24.00;46.79
69173;BME280;56280;49.662;8.408;2022-09-01T12:32:42;100870.44;;;23.99;45.79
69173;BME280;56280;49.662;8.408;2022-09-01T12:35:16;100895.09;;;24.11;45.95
69173;BME280;56280;49.662;8.408;2022-09-01T12:37:43;100871.69;;;24.03;45.57
69173;BME280;56280;49.662;8.408;2022-09-01T12:40:35;100878.16;;;23.96;45.23
69173;BME280;56280;49.662;8.408;2022-09-01T12:43:00;100891.47;;;23.91;46.72
69173;BME280;56280;49.662;8.408;2022-09-01T12:45:43;100894.81;;;23.86;46.45
69173;BME280;56280;49.662;8.408;2022-09-01T12:48:23;100876.78;;;23.78;45.09
69173;BME280;56280;49.662;8.408;2022-09-01T12:50:50;100866.13;;;23.77;46.74
69173;BME280;56280;49.662;8.408;2022-09-01T12:53:21;100885.31;;;24.17;45.42
69173;BME280;56280;49.662;8.408;2022-09-01T12:56:20;100872.56;;;24.24;45.18
69173;BME280;56280;49.662;8.408;2022-09-01T12:58:50;100859.00;;;24.17;45.56
69173;BME280;56280;49.662;8.408;2022-09-01T13:01:30;100859.63;;;24.26;45.48
69173;BME280;56280;49.662;8.408;2022-09-01T13:06:35;100872.03;;;24.75;45.37
69173;BME280;56280;49.662;8.408;2022-09-01T13:09:01;100868.91;;;24.92;43.65
69173;BME280;56280;49.662;8.408;2022-09-01T13:11:26;100839.84;;;24.72;43.47
69173;BME280;56280;49.662;8.408;2022-09-01T13:13:51;100855.72;;;24.89;43.57
69173;BME280;56280;49.662;8.408;2022-09-01T13:16:17;100855.31;;;24.92;43.14
69173;BME280;56280;49.662;8.408;2022-09-01T13:18:42;100852.59;;;25.05;43.13
69173;BME280;56280;49.662;8.408;2022-09-01T13:21:08;100846.50;;;25.03;42.98
69173;BME280;56280;49.662;8.408;2022-09-01T13:23:33;100844.19;;;25.20;44.31
69173;BME280;56280;49.662;8.408;2022-09-01T13:25:59;100847.94;;;25.39;42.70
69173;BME280;56280;49.662;8.408;2022-09-01T13:28:25;100846.88;;;25.40;42.88
69173;BME280;56280;49.662;8.408;2022-09-01T13:30:55;100844.16;;;25.40;42.64
69173;BME280;56280;49.662;8.408;2022-09-01T13:33:23;100833.94;;;25.42;42.80
69173;BME280;56280;49.662;8.408;2022-09-01T13:35:49;100838.47;;;25.55;42.78
69173;BME280;56280;49.662;8.408;2022-09-01T13:38:15;100838.88;;;25.59;41.79
69173;BME280;56280;49.662;8.408;2022-09-01T13:40:41;100841.84;;;25.51;43.28
69173;BME280;56280;49.662;8.408;2022-09-01T13:43:07;100835.91;;;25.67;43.61
69173;BME280;56280;49.662;8.408;2022-09-01T13:45:33;100818.88;;;25.85;42.63
69173;BME280;56280;49.662;8.408;2022-09-01T13:47:58;100829.09;;;25.90;42.29
69173;BME280;56280;49.662;8.408;2022-09-01T13:50:24;100833.47;;;25.52;41.96
69173;BME280;56280;49.662;8.408;2022-09-01T13:52:53;100831.88;;;25.31;41.63
69173;BME280;56280;49.662;8.408;2022-09-01T13:55:25;100826.16;;;25.46;42.22
69173;BME280;56280;49.662;8.408;2022-09-01T13:57:51;100814.19;;;25.60;42.77
69173;BME280;56280;49.662;8.408;2022-09-01T14:00:20;100815.66;;;25.95;42.33
69173;BME280;56280;49.662;8.408;2022-09-01T14:02:49;100818.53;;;26.13;40.41
69173;BME280;56280;49.662;8.408;2022-09-01T14:05:20;100813.66;;;26.22;40.14
69173;BME280;56280;49.662;8.408;2022-09-01T14:07:46;100799.97;;;26.29;39.98
69173;BME280;56280;49.662;8.408;2022-09-01T14:10:13;100818.25;;;26.53;41.49
69173;BME280;56280;49.662;8.408;2022-09-01T14:12:40;100816.81;;;26.76;39.53
69173;BME280;56280;49.662;8.408;2022-09-01T14:15:07;100818.81;;;26.87;38.92
69173;BME280;56280;49.662;8.408;2022-09-01T14:17:34;100788.88;;;26.55;38.68
69173;BME280;56280;49.662;8.408;2022-09-01T14:19:59;100749.03;;;26.36;38.95
69173;BME280;56280;49.662;8.408;2022-09-01T14:22:25;100818.50;;;26.20;38.41